createdAt,value
2019-03-24T00:00:50.695Z,20.27
2019-03-24T00:03:19.661Z,20.02
2019-03-24T00:05:47.900Z,17.37
2019-03-24T00:08:18.929Z,15.38
2019-03-24T00:10:47.945Z,16.55
2019-03-24T00:13:16.754Z,14.73
2019-03-24T00:15:46.109Z,15.75
2019-03-24T00:18:14.901Z,15.83
2019-03-24T00:20:43.568Z,16.67
2019-03-24T00:23:12.685Z,16.80
2019-03-24T00:25:41.041Z,21.45
2019-03-24T00:28:10.004Z,19.20
2019-03-24T00:30:38.703Z,21.75
2019-03-24T00:33:07.190Z,21.02
2019-03-24T00:35:35.590Z,21.02
2019-03-24T00:38:04.158Z,22.25
2019-03-24T00:40:33.286Z,20.77
2019-03-24T00:43:01.816Z,19.55
2019-03-24T00:45:36.820Z,16.90
2019-03-24T00:48:02.980Z,18.62
2019-03-24T00:50:31.508Z,18.07
2019-03-24T00:53:00.296Z,18.60
2019-03-24T00:55:28.986Z,18.87
2019-03-24T00:57:57.671Z,17.17
2019-03-24T01:00:42.966Z,18.80
2019-03-24T01:03:11.318Z,23.05
2019-03-24T01:05:40.067Z,24.12
2019-03-24T01:08:08.444Z,23.62
2019-03-24T01:10:36.968Z,23.47
2019-03-24T01:13:05.720Z,21.93
2019-03-24T01:15:47.091Z,24.20
2019-03-24T01:18:06.988Z,21.50
2019-03-24T01:20:37.817Z,19.07
2019-03-24T01:23:06.108Z,19.30
2019-03-24T01:25:34.809Z,19.57
2019-03-24T01:28:03.397Z,19.23
2019-03-24T01:30:32.237Z,20.55
2019-03-24T01:33:01.023Z,19.92
2019-03-24T01:35:29.534Z,20.85
2019-03-24T01:37:58.101Z,23.83
2019-03-24T01:40:26.615Z,26.00
2019-03-24T01:42:55.180Z,24.55
2019-03-24T01:45:23.802Z,25.12
2019-03-24T01:47:52.014Z,25.17
2019-03-24T01:50:20.413Z,23.73
2019-03-24T01:52:48.576Z,22.45
2019-03-24T01:55:16.927Z,24.65
2019-03-24T01:57:45.331Z,21.80
2019-03-24T02:00:13.595Z,19.90
2019-03-24T02:02:42.316Z,19.87
2019-03-24T02:05:11.251Z,20.72
2019-03-24T02:07:41.048Z,21.12
2019-03-24T02:10:09.636Z,19.60
2019-03-24T02:12:38.369Z,20.27
2019-03-24T02:15:06.894Z,20.82
2019-03-24T02:17:35.275Z,24.57
2019-03-24T02:20:04.254Z,24.20
2019-03-24T02:22:33.589Z,25.43
2019-03-24T02:25:21.099Z,25.27
2019-03-24T02:27:49.829Z,23.52
2019-03-24T02:30:18.673Z,21.95
2019-03-24T02:32:47.214Z,23.02
2019-03-24T02:35:15.822Z,21.07
2019-03-24T02:37:45.336Z,21.10
2019-03-24T02:40:14.539Z,21.23
2019-03-24T02:42:43.210Z,20.88
2019-03-24T02:45:11.945Z,22.22
2019-03-24T02:47:40.925Z,21.20
2019-03-24T02:50:09.456Z,22.40
2019-03-24T02:52:38.245Z,23.83
2019-03-24T02:55:07.382Z,26.17
2019-03-24T02:57:37.246Z,25.17
2019-03-24T03:00:06.771Z,25.27
2019-03-24T03:02:35.568Z,25.70
2019-03-24T03:05:04.920Z,25.35
2019-03-24T03:07:34.594Z,22.70
2019-03-24T03:10:03.725Z,22.10
2019-03-24T03:12:32.739Z,21.33
2019-03-24T03:15:02.313Z,22.25
2019-03-24T03:17:30.829Z,22.05
2019-03-24T03:20:01.050Z,21.75
2019-03-24T03:22:30.261Z,20.72
2019-03-24T03:25:01.207Z,21.33
2019-03-24T03:27:29.954Z,23.65
2019-03-24T03:29:58.456Z,23.40
2019-03-24T03:32:27.160Z,24.67
2019-03-24T03:34:55.868Z,22.20
2019-03-24T03:37:24.452Z,24.15
2019-03-24T03:39:57.382Z,23.70
2019-03-24T03:42:23.723Z,22.73
2019-03-24T03:44:52.501Z,21.40
2019-03-24T03:47:21.203Z,20.48
2019-03-24T03:49:49.853Z,18.80
2019-03-24T03:52:18.570Z,18.32
2019-03-24T03:54:47.109Z,18.30
2019-03-24T03:57:15.688Z,17.55
2019-03-24T03:59:44.568Z,18.48
2019-03-24T04:02:13.172Z,18.07
2019-03-24T04:04:41.754Z,17.32
2019-03-24T04:07:10.264Z,18.27
2019-03-24T04:09:40.290Z,21.15
2019-03-24T04:12:08.788Z,21.80
2019-03-24T04:14:37.324Z,22.55
2019-03-24T04:17:07.896Z,21.25
2019-03-24T04:19:36.707Z,19.40
2019-03-24T04:22:05.130Z,21.00
2019-03-24T04:24:34.966Z,18.20
2019-03-24T04:27:03.860Z,18.92
2019-03-24T04:29:32.589Z,17.45
2019-03-24T04:32:01.135Z,16.00
2019-03-24T04:34:32.738Z,16.23
2019-03-24T04:37:01.413Z,16.25
2019-03-24T04:39:31.829Z,15.72
2019-03-24T04:42:00.648Z,16.87
2019-03-24T04:44:30.345Z,16.90
2019-03-24T04:46:59.561Z,20.60
2019-03-24T04:49:28.386Z,21.23
2019-03-24T04:51:57.237Z,20.95
2019-03-24T04:54:25.863Z,20.48
2019-03-24T04:56:54.373Z,19.95
2019-03-24T04:59:23.467Z,20.35
2019-03-24T05:01:52.363Z,17.98
2019-03-24T05:04:21.225Z,18.75
2019-03-24T05:06:51.120Z,16.25
2019-03-24T05:09:19.667Z,16.12
2019-03-24T05:11:48.442Z,15.32
2019-03-24T05:14:17.238Z,16.27
2019-03-24T05:16:46.314Z,16.02
2019-03-24T05:19:14.834Z,16.10
2019-03-24T05:21:43.552Z,15.85
2019-03-24T05:24:12.161Z,16.15
2019-03-24T05:26:40.939Z,19.60
2019-03-24T05:29:09.539Z,21.23
2019-03-24T05:31:38.071Z,20.85
2019-03-24T05:34:06.650Z,20.72
2019-03-24T05:36:35.172Z,20.08
2019-03-24T05:39:05.863Z,19.82
2019-03-24T05:41:35.502Z,18.00
2019-03-24T05:44:04.140Z,16.37
2019-03-24T05:46:32.808Z,16.02
2019-03-24T05:49:01.823Z,15.68
2019-03-24T05:51:30.447Z,16.52
2019-03-24T05:53:59.437Z,15.85
2019-03-24T05:56:29.725Z,15.08
2019-03-24T05:58:59.058Z,14.87
2019-03-24T06:01:29.593Z,16.62
2019-03-24T06:03:58.517Z,19.60
2019-03-24T06:06:27.140Z,21.52
2019-03-24T06:08:56.199Z,20.82
2019-03-24T06:11:25.064Z,20.40
2019-03-24T06:13:53.931Z,20.05
2019-03-24T06:16:22.733Z,19.52
2019-03-24T06:18:51.528Z,19.95
2019-03-24T06:21:22.110Z,18.20
2019-03-24T06:23:51.397Z,15.63
2019-03-24T06:26:20.057Z,14.83
2019-03-24T06:28:48.540Z,15.38
2019-03-24T06:31:17.068Z,14.30
2019-03-24T06:33:45.585Z,15.70
2019-03-24T06:36:14.261Z,14.33
2019-03-24T06:38:42.817Z,14.98
2019-03-24T06:41:11.385Z,16.17
2019-03-24T06:43:41.394Z,19.40
2019-03-24T06:46:10.051Z,19.65
2019-03-24T06:48:38.813Z,18.70
2019-03-24T06:51:07.661Z,18.77
2019-03-24T06:53:36.983Z,19.55
2019-03-24T06:56:05.586Z,19.05
2019-03-24T06:58:34.452Z,18.40
2019-03-24T07:01:03.423Z,16.87
2019-03-24T07:03:32.811Z,14.35
2019-03-24T07:06:01.779Z,14.95
2019-03-24T07:08:32.647Z,13.83
2019-03-24T07:11:01.187Z,15.35
2019-03-24T07:13:30.104Z,14.13
2019-03-24T07:15:58.734Z,14.23
2019-03-24T07:18:30.733Z,15.08
2019-03-24T07:20:59.440Z,15.20
2019-03-24T07:23:28.160Z,16.32
2019-03-24T07:25:58.184Z,17.75
2019-03-24T07:28:26.691Z,14.07
2019-03-24T07:30:55.225Z,14.30
2019-03-24T07:33:23.754Z,13.68
2019-03-24T07:35:52.378Z,15.20
2019-03-24T07:38:21.649Z,16.07
2019-03-24T07:40:50.241Z,15.48
2019-03-24T07:43:19.033Z,16.37
2019-03-24T07:45:47.759Z,13.95
2019-03-24T07:48:19.518Z,13.38
2019-03-24T07:50:48.359Z,14.35
2019-03-24T07:53:16.926Z,13.38
2019-03-24T07:55:45.586Z,13.60
2019-03-24T07:58:14.246Z,16.30
2019-03-24T08:00:43.170Z,17.73
2019-03-24T08:03:12.164Z,17.73
2019-03-24T08:05:41.395Z,20.35
2019-03-24T08:08:09.975Z,20.12
2019-03-24T08:10:38.802Z,17.73
2019-03-24T08:13:08.272Z,19.55
2019-03-24T08:15:36.803Z,16.97
2019-03-24T08:18:05.093Z,15.00
2019-03-24T08:20:33.806Z,13.03
2019-03-24T08:23:02.435Z,13.00
2019-03-24T08:25:32.079Z,13.30
2019-03-24T08:28:01.276Z,14.93
2019-03-24T08:30:38.557Z,13.80
2019-03-24T08:33:08.496Z,13.65
2019-03-24T08:35:37.762Z,16.30
2019-03-24T08:38:06.628Z,18.67
2019-03-24T08:40:36.166Z,18.73
2019-03-24T08:43:04.747Z,18.05
2019-03-24T08:45:33.779Z,16.82
2019-03-24T08:48:02.890Z,17.05
2019-03-24T08:50:31.934Z,19.17
2019-03-24T08:53:58.166Z,13.90
2019-03-24T08:56:32.069Z,14.68
2019-03-24T08:59:00.810Z,14.85
2019-03-24T09:01:30.080Z,17.57
2019-03-24T09:03:59.072Z,14.38
2019-03-24T09:06:27.871Z,16.42
2019-03-24T09:08:56.486Z,17.40
2019-03-24T09:11:31.190Z,17.23
2019-03-24T09:13:55.611Z,16.37
2019-03-24T09:16:25.251Z,14.78
2019-03-24T09:18:53.981Z,13.93
2019-03-24T09:21:22.527Z,13.15
2019-03-24T09:23:51.538Z,12.25
2019-03-24T09:26:20.051Z,12.40
2019-03-24T09:28:49.380Z,12.33
2019-03-24T09:31:18.913Z,13.08
2019-03-24T09:33:47.843Z,13.35
2019-03-24T09:36:16.345Z,13.32
2019-03-24T09:38:45.521Z,15.32
2019-03-24T09:41:15.062Z,14.28
2019-03-24T09:43:43.665Z,15.93
2019-03-24T09:46:12.235Z,15.63
2019-03-24T09:48:40.701Z,15.50
2019-03-24T09:51:11.211Z,14.53
2019-03-24T09:53:40.062Z,15.90
2019-03-24T09:56:09.190Z,14.07
2019-03-24T09:58:38.514Z,13.38
2019-03-24T10:01:07.047Z,13.48
2019-03-24T10:03:36.371Z,12.75
2019-03-24T10:06:04.911Z,12.93
2019-03-24T10:08:33.575Z,17.85
2019-03-24T10:11:03.073Z,18.55
2019-03-24T10:13:33.348Z,21.17
2019-03-24T10:16:02.021Z,20.30
2019-03-24T10:18:30.928Z,21.93
2019-03-24T10:20:59.843Z,16.50
2019-03-24T10:23:28.746Z,20.05
2019-03-24T10:25:57.737Z,22.52
2019-03-24T10:28:27.026Z,18.32
2019-03-24T10:30:55.798Z,16.45
2019-03-24T10:33:24.578Z,16.37
2019-03-24T10:35:53.696Z,15.68
2019-03-24T10:38:22.420Z,16.37
2019-03-24T10:40:52.654Z,16.12
2019-03-24T10:43:21.210Z,14.87
2019-03-24T10:45:49.808Z,14.87
2019-03-24T10:48:18.455Z,13.85
2019-03-24T10:50:46.880Z,14.33
2019-03-24T10:53:15.561Z,16.10
2019-03-24T10:55:44.270Z,19.92
2019-03-24T10:58:13.748Z,20.57
2019-03-24T11:00:45.075Z,17.15
2019-03-24T11:03:13.851Z,19.90
2019-03-24T11:05:42.615Z,23.18
2019-03-24T11:08:11.793Z,18.48
2019-03-24T11:10:40.917Z,18.10
2019-03-24T11:13:09.857Z,15.98
2019-03-24T11:15:38.733Z,14.45
2019-03-24T11:18:07.689Z,14.85
2019-03-24T11:20:36.435Z,14.40
2019-03-24T11:23:05.192Z,13.38
2019-03-24T11:25:34.309Z,12.47
2019-03-24T11:28:03.188Z,12.70
2019-03-24T11:30:33.379Z,11.83
2019-03-24T11:33:02.107Z,12.70
2019-03-24T11:35:31.073Z,12.98
2019-03-24T11:38:00.176Z,14.23
2019-03-24T11:40:28.710Z,15.55
2019-03-24T11:42:57.662Z,16.75
2019-03-24T11:45:26.278Z,17.42
2019-03-24T11:47:54.898Z,19.95
2019-03-24T11:50:23.903Z,15.85
2019-03-24T11:52:52.574Z,14.33
2019-03-24T11:55:21.206Z,13.25
2019-03-24T11:57:51.529Z,13.25
2019-03-24T12:00:32.247Z,13.50
2019-03-24T12:03:01.786Z,12.73
2019-03-24T12:05:32.139Z,11.75
2019-03-24T12:08:00.810Z,12.73
2019-03-24T12:10:29.271Z,14.68
2019-03-24T12:12:57.706Z,13.98
2019-03-24T12:15:26.412Z,14.70
2019-03-24T12:17:54.928Z,15.93
2019-03-24T12:20:23.740Z,18.75
2019-03-24T12:22:52.688Z,17.00
2019-03-24T12:25:23.270Z,15.10
2019-03-24T12:27:51.899Z,14.10
2019-03-24T12:30:20.820Z,13.88
2019-03-24T12:32:49.633Z,13.55
2019-03-24T12:35:18.549Z,13.38
2019-03-24T12:37:47.475Z,13.00
2019-03-24T12:40:16.202Z,12.68
2019-03-24T12:42:44.787Z,12.10
2019-03-24T12:45:13.501Z,11.08
2019-03-24T12:47:42.568Z,13.43
2019-03-24T12:50:11.490Z,12.10
2019-03-24T12:52:40.135Z,12.37
2019-03-24T12:55:08.974Z,11.45
2019-03-24T12:57:37.773Z,13.98
2019-03-24T13:00:08.136Z,14.65
2019-03-24T13:02:37.540Z,14.40
2019-03-24T13:05:07.380Z,11.95
2019-03-24T13:07:42.082Z,14.07
2019-03-24T13:10:11.210Z,11.95
2019-03-24T13:12:39.740Z,11.20
2019-03-24T13:15:08.367Z,10.88
2019-03-24T13:17:37.125Z,10.78
2019-03-24T13:20:05.972Z,16.50
2019-03-24T13:22:34.970Z,13.58
2019-03-24T13:25:04.904Z,28.42
2019-03-24T13:27:33.549Z,24.95
2019-03-24T13:30:02.413Z,17.15
2019-03-24T13:32:31.256Z,15.55
2019-03-24T13:35:02.571Z,16.23
2019-03-24T13:37:31.545Z,14.58
2019-03-24T13:40:00.356Z,15.18
2019-03-24T13:42:29.167Z,14.58
2019-03-24T13:44:58.526Z,15.38
2019-03-24T13:47:27.607Z,14.30
2019-03-24T13:49:57.582Z,15.10
2019-03-24T13:52:26.634Z,15.38
2019-03-24T13:54:55.611Z,15.53
2019-03-24T13:57:24.199Z,15.88
2019-03-24T13:59:53.099Z,16.80
2019-03-24T14:02:21.688Z,17.50
2019-03-24T14:04:50.182Z,17.42
2019-03-24T14:07:19.056Z,17.00
2019-03-24T14:09:47.599Z,16.93
2019-03-24T14:12:16.096Z,20.05
2019-03-24T14:14:44.625Z,18.17
2019-03-24T14:17:13.319Z,17.45
2019-03-24T14:19:42.572Z,19.07
2019-03-24T14:22:11.200Z,19.60
2019-03-24T14:24:40.154Z,18.15
2019-03-24T14:27:09.178Z,18.32
2019-03-24T14:29:38.182Z,18.25
2019-03-24T14:32:07.153Z,18.17
2019-03-24T14:34:35.637Z,18.60
2019-03-24T14:37:04.153Z,18.25
2019-03-24T14:39:33.326Z,19.92
2019-03-24T14:42:02.267Z,33.95
2019-03-24T14:44:30.835Z,33.53
2019-03-24T14:46:59.815Z,34.75
2019-03-24T14:49:28.356Z,36.75
2019-03-24T14:51:57.050Z,37.30
2019-03-24T14:54:26.023Z,36.25
2019-03-24T14:56:55.623Z,34.58
2019-03-24T14:59:24.319Z,26.52
2019-03-24T15:01:54.055Z,21.37
2019-03-24T15:04:23.032Z,20.88
2019-03-24T15:06:51.567Z,19.65
2019-03-24T15:09:20.452Z,19.45
2019-03-24T15:11:49.308Z,17.48
2019-03-24T15:14:19.724Z,16.00
2019-03-24T15:16:48.273Z,15.63
2019-03-24T15:19:17.095Z,15.68
2019-03-24T15:21:45.628Z,15.48
2019-03-24T15:24:15.583Z,15.32
2019-03-24T15:26:44.312Z,15.65
2019-03-24T15:29:12.941Z,13.13
2019-03-24T15:31:42.320Z,14.38
2019-03-24T15:34:11.617Z,16.10
2019-03-24T15:36:40.098Z,14.80
2019-03-24T15:39:09.518Z,14.63
2019-03-24T15:41:37.799Z,14.43
2019-03-24T15:44:06.370Z,13.68
2019-03-24T15:46:35.246Z,14.18
2019-03-24T15:49:04.041Z,12.75
2019-03-24T15:51:32.961Z,13.08
2019-03-24T15:54:01.624Z,13.28
2019-03-24T15:56:30.377Z,13.65
2019-03-24T15:58:58.895Z,13.90
2019-03-24T16:01:27.577Z,13.55
2019-03-24T16:03:56.446Z,14.80
2019-03-24T16:06:26.041Z,12.68
2019-03-24T16:08:55.688Z,13.98
2019-03-24T16:11:24.226Z,12.93
2019-03-24T16:13:54.360Z,12.80
2019-03-24T16:16:23.641Z,13.70
2019-03-24T16:18:52.770Z,13.30
2019-03-24T16:21:27.701Z,14.13
2019-03-24T16:23:51.776Z,13.98
2019-03-24T16:26:21.148Z,13.43
2019-03-24T16:28:50.200Z,13.50
2019-03-24T16:31:18.845Z,13.53
2019-03-24T16:33:47.389Z,14.18
2019-03-24T16:36:15.942Z,14.30
2019-03-24T16:38:49.095Z,12.95
2019-03-24T16:41:15.545Z,12.93
2019-03-24T16:43:43.975Z,13.40
2019-03-24T16:46:12.536Z,15.50
2019-03-24T16:48:41.014Z,15.23
2019-03-24T16:51:09.680Z,13.95
2019-03-24T16:53:39.229Z,14.93
2019-03-24T16:56:07.861Z,13.38
2019-03-24T16:58:36.728Z,13.18
2019-03-24T17:01:05.539Z,12.63
2019-03-24T17:03:35.020Z,12.70
2019-03-24T17:06:03.651Z,12.70
2019-03-24T17:08:33.032Z,11.33
2019-03-24T17:11:03.582Z,11.22
2019-03-24T17:13:33.453Z,12.43
2019-03-24T17:16:02.334Z,13.05
2019-03-24T17:18:31.386Z,12.03
2019-03-24T17:21:00.523Z,13.58
2019-03-24T17:23:29.893Z,15.23
2019-03-24T17:25:58.605Z,14.05
2019-03-24T17:28:28.243Z,14.00
2019-03-24T17:30:58.195Z,13.70
2019-03-24T17:33:27.322Z,11.85
2019-03-24T17:35:58.062Z,12.43
2019-03-24T17:38:26.637Z,13.35
2019-03-24T17:40:55.672Z,12.28
2019-03-24T17:43:24.242Z,12.10
2019-03-24T17:45:53.255Z,11.68
2019-03-24T17:48:21.969Z,11.28
2019-03-24T17:50:50.870Z,11.97
2019-03-24T17:53:19.851Z,10.95
2019-03-24T17:55:48.529Z,13.38
2019-03-24T17:58:17.070Z,13.68
2019-03-24T18:00:47.830Z,11.90
2019-03-24T18:03:16.565Z,12.28
2019-03-24T18:05:45.368Z,11.85
2019-03-24T18:08:14.006Z,11.78
2019-03-24T18:10:45.716Z,14.53
2019-03-24T18:13:14.661Z,11.80
2019-03-24T18:15:43.601Z,12.13
2019-03-24T18:18:12.361Z,11.97
2019-03-24T18:20:41.033Z,11.40
2019-03-24T18:23:09.750Z,13.30
2019-03-24T18:25:40.753Z,11.93
2019-03-24T18:28:09.408Z,13.00
2019-03-24T18:30:38.549Z,12.15
2019-03-24T18:33:07.734Z,12.13
2019-03-24T18:35:36.550Z,14.40
2019-03-24T18:38:05.492Z,13.68
2019-03-24T18:40:34.134Z,13.65
2019-03-24T18:43:03.190Z,11.80
2019-03-24T18:45:31.850Z,12.07
2019-03-24T18:48:00.581Z,12.35
2019-03-24T18:50:29.640Z,11.65
2019-03-24T18:52:59.055Z,10.70
2019-03-24T18:55:28.175Z,11.18
2019-03-24T18:57:57.538Z,11.43
2019-03-24T19:00:26.663Z,11.18
2019-03-24T19:02:55.678Z,10.35
2019-03-24T19:05:26.127Z,10.93
2019-03-24T19:07:55.437Z,11.10
2019-03-24T19:10:24.587Z,12.00
2019-03-24T19:12:53.486Z,12.60
2019-03-24T19:15:22.409Z,13.08
2019-03-24T19:17:51.997Z,12.43
2019-03-24T19:20:21.179Z,13.88
2019-03-24T19:22:51.552Z,13.53
2019-03-24T19:25:20.277Z,13.75
2019-03-24T19:27:49.218Z,11.97
2019-03-24T19:30:19.976Z,12.35
2019-03-24T19:32:48.907Z,10.35
2019-03-24T19:35:19.526Z,10.38
2019-03-24T19:37:48.492Z,9.70
2019-03-24T19:40:27.116Z,10.18
2019-03-24T19:42:55.910Z,10.38
2019-03-24T19:45:25.028Z,11.63
2019-03-24T19:47:55.042Z,11.05
2019-03-24T19:50:24.121Z,13.38
2019-03-24T19:52:54.654Z,14.10
2019-03-24T19:55:25.169Z,13.15
2019-03-24T19:57:53.742Z,13.80
2019-03-24T20:00:22.636Z,12.40
2019-03-24T20:02:51.667Z,11.85
2019-03-24T20:05:21.108Z,11.28
2019-03-24T20:07:50.230Z,10.18
2019-03-24T20:10:18.685Z,10.60
2019-03-24T20:12:47.489Z,10.08
2019-03-24T20:15:16.648Z,9.98
2019-03-24T20:17:45.616Z,10.28
2019-03-24T20:20:14.561Z,9.45
2019-03-24T20:22:43.544Z,11.63
2019-03-24T20:25:12.305Z,13.28
2019-03-24T20:27:41.361Z,13.78
2019-03-24T20:30:10.676Z,13.10
2019-03-24T20:32:39.931Z,13.35
2019-03-24T20:35:09.846Z,14.73
2019-03-24T20:37:38.830Z,12.65
2019-03-24T20:40:08.158Z,12.53
2019-03-24T20:42:37.187Z,10.30
2019-03-24T20:45:06.180Z,9.08
2019-03-24T20:47:36.880Z,9.60
2019-03-24T20:50:05.992Z,9.48
2019-03-24T20:52:34.784Z,9.73
2019-03-24T20:55:04.235Z,9.55
2019-03-24T20:57:36.172Z,10.38
2019-03-24T21:00:05.417Z,10.40
2019-03-24T21:02:34.397Z,10.35
2019-03-24T21:05:04.155Z,10.68
2019-03-24T21:07:33.546Z,11.63
2019-03-24T21:10:02.396Z,11.20
2019-03-24T21:12:31.459Z,11.20
2019-03-24T21:15:00.584Z,10.48
2019-03-24T21:17:29.910Z,10.15
2019-03-24T21:19:58.599Z,9.38
2019-03-24T21:22:27.370Z,9.80
2019-03-24T21:24:56.864Z,10.63
2019-03-24T21:27:25.602Z,9.05
2019-03-24T21:29:54.279Z,9.40
2019-03-24T21:32:23.230Z,8.50
2019-03-24T21:34:52.739Z,8.98
2019-03-24T21:37:21.618Z,8.73
2019-03-24T21:39:50.486Z,8.88
2019-03-24T21:42:19.457Z,10.45
2019-03-24T21:44:49.355Z,8.83
2019-03-24T21:47:18.062Z,8.85
2019-03-24T21:49:46.979Z,9.10
2019-03-24T21:52:16.370Z,8.33
2019-03-24T21:54:45.772Z,8.35
2019-03-24T21:57:14.352Z,8.03
2019-03-24T21:59:43.254Z,8.70
2019-03-24T22:02:12.447Z,8.65
2019-03-24T22:04:41.712Z,8.73
2019-03-24T22:07:10.465Z,8.28
2019-03-24T22:09:39.214Z,8.18
2019-03-24T22:12:08.248Z,8.38
2019-03-24T22:14:37.442Z,9.23
2019-03-24T22:17:06.344Z,10.03
2019-03-24T22:19:35.581Z,9.03
2019-03-24T22:22:04.199Z,9.03
2019-03-24T22:24:33.348Z,7.70
2019-03-24T22:27:02.122Z,8.68
2019-03-24T22:29:31.406Z,7.40
2019-03-24T22:32:00.266Z,9.60
2019-03-24T22:34:29.078Z,8.90
2019-03-24T22:36:57.662Z,7.50
2019-03-24T22:39:27.986Z,7.67
2019-03-24T22:41:56.920Z,8.03
2019-03-24T22:44:25.879Z,7.08
2019-03-24T22:46:56.348Z,7.00
2019-03-24T22:49:25.276Z,6.90
2019-03-24T22:51:58.696Z,7.37
2019-03-24T22:54:25.115Z,8.45
2019-03-24T22:56:54.072Z,7.62
2019-03-24T22:59:22.804Z,7.90
2019-03-24T23:01:51.408Z,7.53
2019-03-24T23:04:20.473Z,7.25
2019-03-24T23:06:49.661Z,8.40
2019-03-24T23:09:18.388Z,9.25
2019-03-24T23:11:46.668Z,7.65
2019-03-24T23:14:15.921Z,7.65
2019-03-24T23:16:44.912Z,7.47
2019-03-24T23:19:14.249Z,7.92
2019-03-24T23:21:42.904Z,6.60
2019-03-24T23:24:15.649Z,6.83
2019-03-24T23:26:42.614Z,7.47
2019-03-24T23:29:11.198Z,6.90
2019-03-24T23:31:39.487Z,7.33
2019-03-24T23:34:08.186Z,8.00
2019-03-24T23:36:36.634Z,8.43
2019-03-24T23:39:06.767Z,7.10
2019-03-24T23:41:35.403Z,7.20
2019-03-24T23:44:04.244Z,8.55
2019-03-24T23:46:33.485Z,8.48
2019-03-24T23:49:03.627Z,7.55
2019-03-24T23:51:32.404Z,7.83
2019-03-24T23:54:01.351Z,7.33
2019-03-24T23:56:29.966Z,6.95
2019-03-24T23:58:58.856Z,7.05
